Weather at Cormier Airport

Public forecast

Using degrees Celsius for public forecast. Weather courtesy of forecast.io.

Closest aviation weather report (METAR) to Cormier Airport

Closest report is Greater Moncton Roméo LeBlanc International Airport, 13.3 nm (24.5 km) WSW.

2024/07/22 10:00 (retrieved 1 hour ago)

CYQM 221000Z 25009KT 15SM FEW260 14/11 A2995 RMK CI2 SLP145

Closest aviation forecast (TAF) to Cormier Airport

Closest forecast is Greater Moncton Roméo LeBlanc International Airport, 13.3 nm (24.5 km) WSW.

2024/07/22 06:42 (retrieved 4 hours ago)

TAF CYQM 220540Z 2206/2306 24007KT P6SM FEW070 BECMG 2211/2213 25012KT FM221800 25015KT P6SM SCT050 FM222000 26010G20KT P6SM BKN070 FM230300 29007KT P6SM SCT050 RMK NXT FCST BY 221200Z